PH4 weather

CLOSED Russell Airport
Embrun, Ontario, Canada

Public forecast

Using degrees Celsius for public forecast. Weather courtesy of forecast.io.

METAR (pilot weather report)

Closest report is Ottawa Macdonald-Cartier International Airport, 15.4 nm (28.4 km) W. Retrieved 2019/05/21 04:00 UTC (4 minutes ago):

CYOW 210400Z 29013G19KT 15SM FEW022 SCT046 OVC066 09/05 A2984 RMK SC1SC2AC5 SLP109

TAF (pilot weather forecast)

Closest forecast is Ottawa Macdonald-Cartier International Airport, 15.4 nm (28.4 km) W. Retrieved 2019/05/21 03:45 UTC (19 minutes ago):

TAF TAF CYOW 210241Z 2103/2124 30012G22KT P6SM SCT020 OVC050 TEMPO 2103/2104 P6SM -SHRA BKN020 OVC050 FM210400 29012G22KT P6SM SCT020 BKN070 TEMPO 2104/2108 BKN020 OVC070 FM210800 29012G22KT P6SM FEW020 BKN030 BECMG 2111/2113 31018G30KT FM211800 32018G30KT P6SM SCT050 BECMG 2122/2124 32012G22KT RMK NXT FCST BY 210600Z